createdAt,value
2018-02-08T00:00:55.448Z,1038.63
2018-02-08T00:01:55.427Z,1038.63
2018-02-08T00:02:55.408Z,1038.67
2018-02-08T00:03:55.390Z,1038.66
2018-02-08T00:04:55.372Z,1038.68
2018-02-08T00:05:55.352Z,1038.68
2018-02-08T00:06:55.333Z,1038.67
2018-02-08T00:07:55.314Z,1038.66
2018-02-08T00:08:55.311Z,1038.67
2018-02-08T00:09:55.278Z,1038.66
2018-02-08T00:10:55.261Z,1038.69
2018-02-08T00:11:55.240Z,1038.68
2018-02-08T00:12:55.225Z,1038.72
2018-02-08T00:13:55.201Z,1038.72
2018-02-08T00:14:55.182Z,1038.73
2018-02-08T00:15:55.165Z,1038.78
2018-02-08T00:16:55.147Z,1038.78
2018-02-08T00:17:55.126Z,1038.79
2018-02-08T00:18:55.108Z,1038.76
2018-02-08T00:19:55.089Z,1038.76
2018-02-08T00:20:55.071Z,1038.74
2018-02-08T00:21:55.055Z,1038.72
2018-02-08T00:22:55.048Z,1038.72
2018-02-08T00:23:55.014Z,1038.73
2018-02-08T00:24:54.994Z,1038.75
2018-02-08T00:25:54.975Z,1038.77
2018-02-08T00:26:54.959Z,1038.82
2018-02-08T00:27:54.939Z,1038.83
2018-02-08T00:28:54.920Z,1038.8
2018-02-08T00:29:54.902Z,1038.83
2018-02-08T00:30:54.884Z,1038.85
2018-02-08T00:31:54.862Z,1038.85
2018-02-08T00:32:54.845Z,1038.9
2018-02-08T00:33:54.826Z,1038.84
2018-02-08T00:34:54.807Z,1038.9
2018-02-08T00:35:54.787Z,1038.91
2018-02-08T00:36:54.769Z,1038.89
2018-02-08T00:37:54.750Z,1038.93
2018-02-08T00:38:54.732Z,1038.91
2018-02-08T00:39:54.711Z,1038.97
2018-02-08T00:40:54.694Z,1039
2018-02-08T00:41:54.674Z,1039.04
2018-02-08T00:42:54.660Z,1039.03
2018-02-08T00:43:54.637Z,1039.05
2018-02-08T00:44:54.617Z,1039.12
2018-02-08T00:45:54.598Z,1039.11
2018-02-08T00:46:54.580Z,1039.12
2018-02-08T00:47:54.561Z,1039.15
2018-02-08T00:48:54.543Z,1039.18
2018-02-08T00:49:54.533Z,1039.17
2018-02-08T00:50:54.503Z,1039.2
2018-02-08T00:51:54.486Z,1039.18
2018-02-08T00:52:54.466Z,1039.17
2018-02-08T00:53:54.446Z,1039.19
2018-02-08T00:54:54.428Z,1039.21
2018-02-08T00:55:54.409Z,1039.23
2018-02-08T00:56:54.390Z,1039.22
2018-02-08T00:57:54.372Z,1039.21
2018-02-08T00:58:54.353Z,1039.17
2018-02-08T00:59:54.333Z,1039.19
2018-02-08T01:00:54.316Z,1039.17
2018-02-08T01:01:54.296Z,1039.2
2018-02-08T01:02:54.276Z,1039.17
2018-02-08T01:03:54.258Z,1039.19
2018-02-08T01:04:54.237Z,1039.14
2018-02-08T01:05:54.220Z,1039.16
2018-02-08T01:06:54.200Z,1039.16
2018-02-08T01:07:54.183Z,1039.19
2018-02-08T01:08:54.163Z,1039.18
2018-02-08T01:09:54.143Z,1039.22
2018-02-08T01:10:54.124Z,1039.18
2018-02-08T01:11:54.108Z,1039.18
2018-02-08T01:12:54.087Z,1039.17
2018-02-08T01:13:54.069Z,1039.19
2018-02-08T01:14:54.050Z,1039.17
2018-02-08T01:15:54.028Z,1039.16
2018-02-08T01:16:54.011Z,1039.2
2018-02-08T01:17:53.992Z,1039.22
2018-02-08T01:18:53.975Z,1039.19
2018-02-08T01:19:53.955Z,1039.23
2018-02-08T01:20:53.935Z,1039.22
2018-02-08T01:21:53.916Z,1039.27
2018-02-08T01:22:53.898Z,1039.24
2018-02-08T01:23:53.877Z,1039.27
2018-02-08T01:24:53.859Z,1039.24
2018-02-08T01:25:53.838Z,1039.26
2018-02-08T01:26:53.830Z,1039.23
2018-02-08T01:27:53.800Z,1039.26
2018-02-08T01:28:53.782Z,1039.27
2018-02-08T01:29:53.766Z,1039.28
2018-02-08T01:30:53.743Z,1039.27
2018-02-08T01:31:53.725Z,1039.27
2018-02-08T01:32:53.707Z,1039.26
2018-02-08T01:33:53.687Z,1039.27
2018-02-08T01:34:53.668Z,1039.28
2018-02-08T01:35:53.650Z,1039.26
2018-02-08T01:36:53.643Z,1039.27
2018-02-08T01:37:53.610Z,1039.27
2018-02-08T01:38:53.633Z,1039.3
2018-02-08T01:39:53.574Z,1039.29
2018-02-08T01:40:53.554Z,1039.32
2018-02-08T01:41:53.543Z,1039.32
2018-02-08T01:42:53.516Z,1039.37
2018-02-08T01:43:53.499Z,1039.31
2018-02-08T01:44:53.477Z,1039.37
2018-02-08T01:45:53.459Z,1039.34
2018-02-08T01:46:53.439Z,1039.35
2018-02-08T01:47:53.422Z,1039.36
2018-02-08T01:48:53.402Z,1039.34
2018-02-08T01:49:53.383Z,1039.37
2018-02-08T01:50:53.365Z,1039.37
2018-02-08T01:51:53.346Z,1039.38
2018-02-08T01:52:53.324Z,1039.39
2018-02-08T01:53:53.306Z,1039.43
2018-02-08T01:54:53.287Z,1039.41
2018-02-08T01:55:53.268Z,1039.39
2018-02-08T01:56:53.249Z,1039.36
2018-02-08T01:57:53.229Z,1039.39
2018-02-08T01:58:53.211Z,1039.41
2018-02-08T01:59:53.193Z,1039.41
2018-02-08T02:00:53.173Z,1039.38
2018-02-08T02:01:53.153Z,1039.42
2018-02-08T02:02:53.136Z,1039.42
2018-02-08T02:03:53.116Z,1039.45
2018-02-08T02:04:53.097Z,1039.43
2018-02-08T02:05:53.078Z,1039.46
2018-02-08T02:06:53.057Z,1039.45
2018-02-08T02:07:53.039Z,1039.48
2018-02-08T02:08:53.020Z,1039.43
2018-02-08T02:09:53.002Z,1039.44
2018-02-08T02:10:52.983Z,1039.48
2018-02-08T02:11:52.965Z,1039.46
2018-02-08T02:12:52.944Z,1039.47
2018-02-08T02:13:52.924Z,1039.5
2018-02-08T02:14:52.905Z,1039.44
2018-02-08T02:15:52.886Z,1039.4
2018-02-08T02:16:52.867Z,1039.45
2018-02-08T02:17:52.848Z,1039.47
2018-02-08T02:18:52.828Z,1039.47
2018-02-08T02:19:52.812Z,1039.48
2018-02-08T02:20:52.791Z,1039.45
2018-02-08T02:21:52.771Z,1039.49
2018-02-08T02:22:52.752Z,1039.48
2018-02-08T02:23:52.732Z,1039.53
2018-02-08T02:24:52.714Z,1039.55
2018-02-08T02:25:52.694Z,1039.52
2018-02-08T02:26:52.676Z,1039.5
2018-02-08T02:27:52.656Z,1039.49
2018-02-08T02:28:52.636Z,1039.47
2018-02-08T02:29:52.617Z,1039.46
2018-02-08T02:30:52.598Z,1039.44
2018-02-08T02:31:52.579Z,1039.44
2018-02-08T02:32:52.560Z,1039.45
2018-02-08T02:33:52.541Z,1039.43
2018-02-08T02:34:52.521Z,1039.49
2018-02-08T02:35:52.503Z,1039.49
2018-02-08T02:36:52.484Z,1039.49
2018-02-08T02:37:52.468Z,1039.47
2018-02-08T02:38:52.696Z,1039.49
2018-02-08T02:39:52.426Z,1039.46
2018-02-08T02:40:52.405Z,1039.45
2018-02-08T02:41:52.389Z,1039.46
2018-02-08T02:42:52.370Z,1039.47
2018-02-08T02:43:52.348Z,1039.45
2018-02-08T02:44:52.329Z,1039.45
2018-02-08T02:45:52.310Z,1039.47
2018-02-08T02:46:52.293Z,1039.47
2018-02-08T02:47:52.276Z,1039.45
2018-02-08T02:48:52.252Z,1039.45
2018-02-08T02:49:52.235Z,1039.45
2018-02-08T02:50:52.213Z,1039.43
2018-02-08T02:51:52.196Z,1039.45
2018-02-08T02:52:52.177Z,1039.45
2018-02-08T02:53:52.158Z,1039.46
2018-02-08T02:54:52.138Z,1039.47
2018-02-08T02:55:52.120Z,1039.46
2018-02-08T02:56:52.099Z,1039.49
2018-02-08T02:57:52.081Z,1039.5
2018-02-08T02:58:52.061Z,1039.58
2018-02-08T02:59:52.042Z,1039.59
2018-02-08T03:00:52.022Z,1039.61
2018-02-08T03:01:52.003Z,1039.62
2018-02-08T03:02:51.989Z,1039.6
2018-02-08T03:03:51.965Z,1039.62
2018-02-08T03:04:51.946Z,1039.61
2018-02-08T03:05:51.929Z,1039.65
2018-02-08T03:06:51.907Z,1039.66
2018-02-08T03:07:51.887Z,1039.64
2018-02-08T03:08:51.870Z,1039.65
2018-02-08T03:09:51.850Z,1039.6
2018-02-08T03:10:51.831Z,1039.61
2018-02-08T03:11:51.813Z,1039.63
2018-02-08T03:12:51.792Z,1039.6
2018-02-08T03:13:51.772Z,1039.62
2018-02-08T03:14:51.753Z,1039.6
2018-02-08T03:15:51.735Z,1039.65
2018-02-08T03:16:51.716Z,1039.65
2018-02-08T03:17:51.697Z,1039.61
2018-02-08T03:18:51.676Z,1039.63
2018-02-08T03:19:51.657Z,1039.6
2018-02-08T03:20:51.637Z,1039.63
2018-02-08T03:21:51.643Z,1039.62
2018-02-08T03:22:51.600Z,1039.59
2018-02-08T03:23:51.581Z,1039.58
2018-02-08T03:24:51.566Z,1039.61
2018-02-08T03:25:51.543Z,1039.61
2018-02-08T03:26:51.522Z,1039.61
2018-02-08T03:27:51.503Z,1039.6
2018-02-08T03:28:51.483Z,1039.59
2018-02-08T03:29:51.467Z,1039.6
2018-02-08T03:30:51.446Z,1039.62
2018-02-08T03:31:51.426Z,1039.62
2018-02-08T03:32:51.407Z,1039.65
2018-02-08T03:33:51.387Z,1039.64
2018-02-08T03:34:51.372Z,1039.63
2018-02-08T03:35:51.349Z,1039.63
2018-02-08T03:36:51.333Z,1039.62
2018-02-08T03:37:51.310Z,1039.65
2018-02-08T03:38:51.290Z,1039.61
2018-02-08T03:39:51.272Z,1039.66
2018-02-08T03:40:51.253Z,1039.66
2018-02-08T03:41:51.233Z,1039.65
2018-02-08T03:42:51.214Z,1039.63
2018-02-08T03:43:51.195Z,1039.66
2018-02-08T03:44:51.174Z,1039.64
2018-02-08T03:45:51.159Z,1039.67
2018-02-08T03:46:51.136Z,1039.65
2018-02-08T03:47:51.116Z,1039.66
2018-02-08T03:48:51.099Z,1039.64
2018-02-08T03:49:51.079Z,1039.64
2018-02-08T03:50:51.060Z,1039.67
2018-02-08T03:51:51.040Z,1039.63
2018-02-08T03:52:51.020Z,1039.66
2018-02-08T03:53:51.000Z,1039.67
2018-02-08T03:54:50.981Z,1039.64
2018-02-08T03:55:50.962Z,1039.67
2018-02-08T03:56:50.943Z,1039.7
2018-02-08T03:57:50.924Z,1039.68
2018-02-08T03:58:50.904Z,1039.69
2018-02-08T03:59:50.885Z,1039.72
2018-02-08T04:00:50.870Z,1039.74
2018-02-08T04:01:50.847Z,1039.75
2018-02-08T04:02:50.827Z,1039.75
2018-02-08T04:03:50.806Z,1039.78
2018-02-08T04:04:50.787Z,1039.82
2018-02-08T04:05:50.769Z,1039.81
2018-02-08T04:06:50.749Z,1039.83
2018-02-08T04:07:50.729Z,1039.82
2018-02-08T04:08:50.710Z,1039.85
2018-02-08T04:09:50.692Z,1039.87
2018-02-08T04:10:50.672Z,1039.86
2018-02-08T04:11:50.652Z,1039.87
2018-02-08T04:12:50.633Z,1039.89
2018-02-08T04:13:50.616Z,1039.92
2018-02-08T04:14:50.594Z,1039.9
2018-02-08T04:15:50.575Z,1039.91
2018-02-08T04:16:50.555Z,1039.93
2018-02-08T04:17:50.535Z,1039.92
2018-02-08T04:18:50.515Z,1039.93
2018-02-08T04:19:50.498Z,1039.9
2018-02-08T04:20:50.479Z,1039.97
2018-02-08T04:21:50.465Z,1039.94
2018-02-08T04:22:50.438Z,1039.94
2018-02-08T04:23:50.418Z,1039.93
2018-02-08T04:24:50.399Z,1039.94
2018-02-08T04:25:50.380Z,1039.97
2018-02-08T04:26:50.361Z,1039.98
2018-02-08T04:27:50.342Z,1040
2018-02-08T04:28:50.322Z,1040.02
2018-02-08T04:29:50.301Z,1040.02
2018-02-08T04:30:50.284Z,1040.04
2018-02-08T04:31:50.262Z,1040.09
2018-02-08T04:32:50.243Z,1040.1
2018-02-08T04:33:50.224Z,1040.13
2018-02-08T04:34:50.205Z,1040.11
2018-02-08T04:35:50.185Z,1040.1
2018-02-08T04:36:50.166Z,1040.12
2018-02-08T04:37:50.146Z,1040.1
2018-02-08T04:38:50.127Z,1040.13
2018-02-08T04:39:50.107Z,1040.16
2018-02-08T04:40:50.087Z,1040.18
2018-02-08T04:41:50.068Z,1040.15
2018-02-08T04:42:50.048Z,1040.18
2018-02-08T04:43:50.029Z,1040.16
2018-02-08T04:44:50.010Z,1040.17
2018-02-08T04:45:49.992Z,1040.15
2018-02-08T04:46:49.972Z,1040.17
2018-02-08T04:47:49.952Z,1040.18
2018-02-08T04:48:49.931Z,1040.18
2018-02-08T04:49:49.912Z,1040.21
2018-02-08T04:50:49.893Z,1040.2
2018-02-08T04:51:49.873Z,1040.25
2018-02-08T04:52:49.853Z,1040.23
2018-02-08T04:53:49.838Z,1040.22
2018-02-08T04:54:49.814Z,1040.26
2018-02-08T04:55:49.794Z,1040.21
2018-02-08T04:56:49.776Z,1040.22
2018-02-08T04:57:49.757Z,1040.21
2018-02-08T04:58:49.738Z,1040.22
2018-02-08T04:59:49.716Z,1040.23
2018-02-08T05:00:49.698Z,1040.22
2018-02-08T05:01:49.678Z,1040.22
2018-02-08T05:02:49.658Z,1040.22
2018-02-08T05:03:49.639Z,1040.23
2018-02-08T05:04:49.620Z,1040.23
2018-02-08T05:05:49.599Z,1040.21
2018-02-08T05:06:49.581Z,1040.24
2018-02-08T05:07:49.560Z,1040.24
2018-02-08T05:08:49.541Z,1040.29
2018-02-08T05:09:49.522Z,1040.28
2018-02-08T05:10:49.503Z,1040.27
2018-02-08T05:11:49.492Z,1040.28
2018-02-08T05:12:49.463Z,1040.28
2018-02-08T05:13:49.443Z,1040.27
2018-02-08T05:14:49.423Z,1040.26
2018-02-08T05:15:49.405Z,1040.3
2018-02-08T05:16:49.384Z,1040.34
2018-02-08T05:17:49.365Z,1040.35
2018-02-08T05:18:49.346Z,1040.36
2018-02-08T05:19:49.335Z,1040.38
2018-02-08T05:20:49.307Z,1040.4
2018-02-08T05:21:49.288Z,1040.42
2018-02-08T05:22:49.267Z,1040.36
2018-02-08T05:23:49.249Z,1040.4
2018-02-08T05:24:49.227Z,1040.43
2018-02-08T05:25:49.208Z,1040.41
2018-02-08T05:26:49.192Z,1040.43
2018-02-08T05:27:49.170Z,1040.42
2018-02-08T05:28:49.151Z,1040.42
2018-02-08T05:29:49.131Z,1040.4
2018-02-08T05:30:49.112Z,1040.4
2018-02-08T05:31:49.092Z,1040.41
2018-02-08T05:32:49.072Z,1040.41
2018-02-08T05:33:49.055Z,1040.42
2018-02-08T05:34:49.033Z,1040.42
2018-02-08T05:35:49.015Z,1040.39
2018-02-08T05:36:48.995Z,1040.4
2018-02-08T05:37:48.976Z,1040.42
2018-02-08T05:38:48.954Z,1040.41
2018-02-08T05:39:48.936Z,1040.46
2018-02-08T05:40:48.941Z,1040.45
2018-02-08T05:41:48.897Z,1040.42
2018-02-08T05:42:48.877Z,1040.41
2018-02-08T05:43:48.857Z,1040.43
2018-02-08T05:44:48.838Z,1040.39
2018-02-08T05:45:49.069Z,1040.39
2018-02-08T05:46:48.798Z,1040.36
2018-02-08T05:47:48.782Z,1040.4
2018-02-08T05:48:48.760Z,1040.43
2018-02-08T05:49:48.741Z,1040.43
2018-02-08T05:50:48.724Z,1040.46
2018-02-08T05:51:48.703Z,1040.47
2018-02-08T05:52:48.688Z,1040.44
2018-02-08T05:53:48.662Z,1040.48
2018-02-08T05:54:48.643Z,1040.53
2018-02-08T05:55:48.625Z,1040.54
2018-02-08T05:56:48.606Z,1040.53
2018-02-08T05:57:48.584Z,1040.55
2018-02-08T05:58:48.566Z,1040.52
2018-02-08T05:59:48.547Z,1040.55
2018-02-08T06:00:48.527Z,1040.54
2018-02-08T06:01:48.507Z,1040.53
2018-02-08T06:02:48.489Z,1040.5
2018-02-08T06:03:48.469Z,1040.55
2018-02-08T06:04:48.453Z,1040.54
2018-02-08T06:05:48.429Z,1040.55
2018-02-08T06:06:48.416Z,1040.54
2018-02-08T06:07:48.392Z,1040.53
2018-02-08T06:08:48.372Z,1040.5
2018-02-08T06:09:48.353Z,1040.53
2018-02-08T06:10:48.332Z,1040.48
2018-02-08T06:11:48.314Z,1040.55
2018-02-08T06:12:48.295Z,1040.52
2018-02-08T06:13:48.276Z,1040.56
2018-02-08T06:14:48.255Z,1040.5
2018-02-08T06:15:48.235Z,1040.56
2018-02-08T06:16:48.216Z,1040.56
2018-02-08T06:17:48.197Z,1040.59
2018-02-08T06:18:48.178Z,1040.63
2018-02-08T06:19:48.159Z,1040.62
2018-02-08T06:20:48.141Z,1040.6
2018-02-08T06:21:48.122Z,1040.6
2018-02-08T06:22:48.100Z,1040.62
2018-02-08T06:23:48.081Z,1040.62
2018-02-08T06:24:48.063Z,1040.58
2018-02-08T06:25:48.043Z,1040.6
2018-02-08T06:26:48.023Z,1040.61
2018-02-08T06:27:48.005Z,1040.59
2018-02-08T06:28:47.985Z,1040.59
2018-02-08T06:29:47.964Z,1040.55
2018-02-08T06:30:47.945Z,1040.56
2018-02-08T06:31:47.926Z,1040.58
2018-02-08T06:32:48.206Z,1040.57
2018-02-08T06:33:47.888Z,1040.59
2018-02-08T06:34:47.869Z,1040.59
2018-02-08T06:35:47.848Z,1040.59
2018-02-08T06:36:47.830Z,1040.61
2018-02-08T06:37:47.809Z,1040.63
2018-02-08T06:38:47.791Z,1040.65
2018-02-08T06:39:47.772Z,1040.68
2018-02-08T06:40:47.751Z,1040.67
2018-02-08T06:41:47.733Z,1040.68
2018-02-08T06:42:47.714Z,1040.66
2018-02-08T06:43:47.695Z,1040.65
2018-02-08T06:44:47.673Z,1040.68
2018-02-08T06:45:47.655Z,1040.71
2018-02-08T06:46:47.636Z,1040.72
2018-02-08T06:47:47.617Z,1040.75
2018-02-08T06:48:47.597Z,1040.74
2018-02-08T06:49:47.578Z,1040.76
2018-02-08T06:50:47.559Z,1040.77
2018-02-08T06:51:47.539Z,1040.77
2018-02-08T06:52:47.520Z,1040.73
2018-02-08T06:53:47.501Z,1040.73
2018-02-08T06:54:47.481Z,1040.7
2018-02-08T06:55:47.461Z,1040.68
2018-02-08T06:56:47.443Z,1040.7
2018-02-08T06:57:47.426Z,1040.66
2018-02-08T06:58:47.404Z,1040.6
2018-02-08T06:59:47.384Z,1040.56
2018-02-08T07:00:47.365Z,1040.5
2018-02-08T07:01:47.346Z,1040.46
2018-02-08T07:02:47.326Z,1040.41
2018-02-08T07:03:47.309Z,1040.36
2018-02-08T07:04:47.288Z,1040.29
2018-02-08T07:05:47.270Z,1040.23
2018-02-08T07:06:47.249Z,1040.19
2018-02-08T07:07:47.231Z,1040.13
2018-02-08T07:08:47.212Z,1040.08
2018-02-08T07:09:47.194Z,1040.01
2018-02-08T07:10:47.174Z,1039.92
2018-02-08T07:11:47.154Z,1039.88
2018-02-08T07:12:47.137Z,1039.81
2018-02-08T07:13:47.115Z,1039.68
2018-02-08T07:14:47.101Z,1039.65
2018-02-08T07:15:47.077Z,1039.52
2018-02-08T07:16:47.059Z,1039.49
2018-02-08T07:17:47.041Z,1039.39
2018-02-08T07:18:47.024Z,1039.28
2018-02-08T07:19:47.005Z,1039.19
2018-02-08T07:20:46.984Z,1039.12
2018-02-08T07:21:46.966Z,1039.08
2018-02-08T07:22:46.948Z,1039.01
2018-02-08T07:23:46.928Z,1038.89
2018-02-08T07:24:46.913Z,1038.75
2018-02-08T07:25:46.892Z,1038.72
2018-02-08T07:26:46.873Z,1038.59
2018-02-08T07:27:46.856Z,1038.49
2018-02-08T07:28:46.852Z,1038.52
2018-02-08T07:29:46.819Z,1038.48
2018-02-08T07:30:46.802Z,1038.52
2018-02-08T07:31:46.784Z,1038.63
2018-02-08T07:32:46.764Z,1038.7
2018-02-08T07:33:46.746Z,1038.74
2018-02-08T07:34:46.733Z,1038.78
2018-02-08T07:35:46.710Z,1038.73
2018-02-08T07:36:46.692Z,1038.62
2018-02-08T07:37:46.674Z,1038.58
2018-02-08T07:38:46.658Z,1038.43
2018-02-08T07:39:46.638Z,1038.41
2018-02-08T07:40:46.621Z,1038.41
2018-02-08T07:41:46.604Z,1038.5
2018-02-08T07:42:46.587Z,1038.57
2018-02-08T07:43:46.567Z,1038.68
2018-02-08T07:44:46.551Z,1038.77
2018-02-08T07:45:46.533Z,1038.87
2018-02-08T07:46:46.516Z,1038.88
2018-02-08T07:47:46.498Z,1038.91
2018-02-08T07:48:46.481Z,1038.97
2018-02-08T07:49:46.463Z,1038.97
2018-02-08T07:50:46.693Z,1038.95
2018-02-08T07:51:46.426Z,1038.89
2018-02-08T07:52:46.409Z,1038.81
2018-02-08T07:53:46.393Z,1038.81
2018-02-08T07:54:46.398Z,1038.75
2018-02-08T07:55:46.357Z,1038.7
2018-02-08T07:56:46.340Z,1038.66
2018-02-08T07:57:46.321Z,1038.66
2018-02-08T07:58:46.303Z,1038.65
2018-02-08T07:59:46.287Z,1038.64
2018-02-08T08:00:46.270Z,1038.72
2018-02-08T08:01:46.256Z,1038.75
2018-02-08T08:02:46.234Z,1038.77
2018-02-08T08:03:46.216Z,1038.8
2018-02-08T08:04:46.199Z,1038.79
2018-02-08T08:05:46.182Z,1038.84
2018-02-08T08:06:46.164Z,1038.82
2018-02-08T08:07:46.146Z,1038.86
2018-02-08T08:08:46.128Z,1038.88
2018-02-08T08:09:46.111Z,1038.81
2018-02-08T08:10:46.093Z,1038.81
2018-02-08T08:11:46.076Z,1038.75
2018-02-08T08:12:46.057Z,1038.76
2018-02-08T08:13:46.041Z,1038.79
2018-02-08T08:14:46.023Z,1038.81
2018-02-08T08:15:46.006Z,1038.89
2018-02-08T08:16:45.988Z,1038.95
2018-02-08T08:17:45.972Z,1038.96
2018-02-08T08:18:45.954Z,1038.98
2018-02-08T08:19:45.935Z,1038.99
2018-02-08T08:20:45.919Z,1038.94
2018-02-08T08:21:45.900Z,1038.96
2018-02-08T08:22:45.883Z,1038.95
2018-02-08T08:23:45.869Z,1038.93
2018-02-08T08:24:45.848Z,1038.96
2018-02-08T08:25:45.830Z,1038.98
2018-02-08T08:26:45.812Z,1038.96
2018-02-08T08:27:45.796Z,1038.95
2018-02-08T08:28:45.779Z,1038.96
2018-02-08T08:29:45.762Z,1038.94
2018-02-08T08:30:45.742Z,1038.91
2018-02-08T08:31:45.726Z,1038.89
2018-02-08T08:32:45.759Z,1038.89
2018-02-08T08:33:45.693Z,1038.81
2018-02-08T08:34:45.674Z,1038.82
2018-02-08T08:35:45.658Z,1038.84
2018-02-08T08:36:45.645Z,1038.79
2018-02-08T08:37:45.622Z,1038.8
2018-02-08T08:38:45.604Z,1038.79
2018-02-08T08:39:45.589Z,1038.77
2018-02-08T08:40:45.572Z,1038.77
2018-02-08T08:41:45.553Z,1038.75
2018-02-08T08:42:45.536Z,1038.69
2018-02-08T08:43:45.520Z,1038.7
2018-02-08T08:44:45.503Z,1038.63
2018-02-08T08:45:45.488Z,1038.58
2018-02-08T08:46:45.468Z,1038.55
2018-02-08T08:47:45.450Z,1038.51
2018-02-08T08:48:45.432Z,1038.55
2018-02-08T08:49:45.417Z,1038.52
2018-02-08T08:50:45.400Z,1038.54
2018-02-08T08:51:45.386Z,1038.52
2018-02-08T08:52:45.365Z,1038.5
2018-02-08T08:53:45.350Z,1038.47
2018-02-08T08:54:45.333Z,1038.45
2018-02-08T08:55:45.326Z,1038.43
2018-02-08T08:56:45.301Z,1038.4
2018-02-08T08:57:45.283Z,1038.38
2018-02-08T08:58:45.264Z,1038.35
2018-02-08T08:59:45.247Z,1038.34
2018-02-08T09:00:45.232Z,1038.27
2018-02-08T09:01:45.214Z,1038.25
2018-02-08T09:02:45.201Z,1038.2
2018-02-08T09:03:45.180Z,1038.18
2018-02-08T09:04:45.165Z,1038.18
2018-02-08T09:05:45.147Z,1038.19
2018-02-08T09:06:45.132Z,1038.2
2018-02-08T09:07:45.116Z,1038.23
2018-02-08T09:08:45.099Z,1038.2
2018-02-08T09:09:45.082Z,1038.21
2018-02-08T09:10:45.065Z,1038.15
2018-02-08T09:11:45.048Z,1038.14
2018-02-08T09:12:45.032Z,1038.15
2018-02-08T09:13:45.017Z,1038.05
2018-02-08T09:14:44.999Z,1038.06
2018-02-08T09:15:44.983Z,1038.08
2018-02-08T09:16:44.968Z,1038.07
2018-02-08T09:17:44.950Z,1038.09
2018-02-08T09:18:44.935Z,1038.15
2018-02-08T09:19:44.917Z,1038.16
2018-02-08T09:20:44.902Z,1038.16
2018-02-08T09:21:44.884Z,1038.14
2018-02-08T09:22:44.869Z,1038.13
2018-02-08T09:23:44.856Z,1038.14
2018-02-08T09:24:44.837Z,1038.12
2018-02-08T09:26:44.805Z,1038.06
2018-02-08T09:27:44.787Z,1038.03
2018-02-08T09:28:44.771Z,1037.98
2018-02-08T09:29:44.756Z,1037.95
2018-02-08T09:30:44.739Z,1037.98
2018-02-08T09:31:44.724Z,1037.96
2018-02-08T09:32:44.707Z,1037.98
2018-02-08T09:33:44.693Z,1038.05
2018-02-08T09:34:44.681Z,1038.04
2018-02-08T09:35:44.660Z,1038.08
2018-02-08T09:36:44.642Z,1038.05
2018-02-08T09:37:44.626Z,1038.06
2018-02-08T09:38:44.614Z,1038.12
2018-02-08T09:39:44.594Z,1038.08
2018-02-08T09:40:44.578Z,1038.1
2018-02-08T09:41:44.563Z,1038.12
2018-02-08T09:42:44.548Z,1038.08
2018-02-08T09:43:44.530Z,1038.1
2018-02-08T09:44:44.515Z,1038.07
2018-02-08T09:45:44.500Z,1038.07
2018-02-08T09:46:44.484Z,1038.1
2018-02-08T09:47:44.467Z,1038.1
2018-02-08T09:48:44.452Z,1038.11
2018-02-08T09:49:44.437Z,1038.1
2018-02-08T09:50:44.421Z,1038.05
2018-02-08T09:51:44.404Z,1038.09
2018-02-08T09:52:44.389Z,1038.05
2018-02-08T09:53:44.372Z,1038.04
2018-02-08T09:54:44.356Z,1038.05
2018-02-08T09:55:44.341Z,1038.02
2018-02-08T09:56:44.328Z,1037.99
2018-02-08T09:57:44.309Z,1038.01
2018-02-08T09:58:44.293Z,1037.98
2018-02-08T09:59:44.281Z,1038.01
2018-02-08T10:00:44.262Z,1038
2018-02-08T10:01:44.250Z,1038.05
2018-02-08T10:02:44.232Z,1038.04
2018-02-08T10:03:44.214Z,1038
2018-02-08T10:04:44.199Z,1038.02
2018-02-08T10:05:44.182Z,1038.02
2018-02-08T10:06:44.167Z,1038.03
2018-02-08T10:07:44.152Z,1038.02
2018-02-08T10:08:44.137Z,1038
2018-02-08T10:09:44.120Z,1037.99
2018-02-08T10:10:44.104Z,1038.01
2018-02-08T10:11:44.090Z,1038.03
2018-02-08T10:12:44.072Z,1038.03
2018-02-08T10:13:44.057Z,1038.04
2018-02-08T10:14:44.057Z,1038
2018-02-08T10:15:44.027Z,1038.03
2018-02-08T10:16:44.010Z,1038.03
2018-02-08T10:17:43.995Z,1037.97
2018-02-08T10:18:43.980Z,1037.95
2018-02-08T10:19:43.965Z,1037.89
2018-02-08T10:20:43.947Z,1037.91
2018-02-08T10:21:43.932Z,1037.91
2018-02-08T10:22:43.917Z,1037.89
2018-02-08T10:23:43.905Z,1037.89
2018-02-08T10:24:43.885Z,1037.87
2018-02-08T10:25:43.870Z,1037.88
2018-02-08T10:26:44.155Z,1037.86
2018-02-08T10:27:43.838Z,1037.88
2018-02-08T10:28:43.822Z,1037.85
2018-02-08T10:29:43.808Z,1037.82
2018-02-08T10:30:43.792Z,1037.81
2018-02-08T10:31:43.777Z,1037.79
2018-02-08T10:32:43.762Z,1037.78
2018-02-08T10:33:43.747Z,1037.79
2018-02-08T10:34:43.730Z,1037.79
2018-02-08T10:35:43.713Z,1037.77
2018-02-08T10:36:43.699Z,1037.76
2018-02-08T10:37:43.684Z,1037.74
2018-02-08T10:38:43.667Z,1037.71
2018-02-08T10:39:43.652Z,1037.71
2018-02-08T10:40:43.637Z,1037.7
2018-02-08T10:41:43.622Z,1037.69
2018-02-08T10:42:43.605Z,1037.7
2018-02-08T10:43:43.592Z,1037.71
2018-02-08T10:44:43.575Z,1037.69
2018-02-08T10:45:43.559Z,1037.71
2018-02-08T10:46:43.543Z,1037.7
2018-02-08T10:47:43.528Z,1037.68
2018-02-08T10:48:43.513Z,1037.65
2018-02-08T10:49:43.501Z,1037.64
2018-02-08T10:50:43.483Z,1037.62
2018-02-08T10:51:43.475Z,1037.56
2018-02-08T10:52:43.451Z,1037.53
2018-02-08T10:53:43.435Z,1037.53
2018-02-08T10:54:43.419Z,1037.56
2018-02-08T10:55:43.405Z,1037.54
2018-02-08T10:56:43.388Z,1037.51
2018-02-08T10:57:43.374Z,1037.47
2018-02-08T10:58:43.359Z,1037.49
2018-02-08T10:59:43.343Z,1037.44
2018-02-08T11:00:43.327Z,1037.41
2018-02-08T11:01:43.313Z,1037.39
2018-02-08T11:02:43.297Z,1037.35
2018-02-08T11:03:43.302Z,1037.4
2018-02-08T11:04:43.267Z,1037.38
2018-02-08T11:05:43.253Z,1037.32
2018-02-08T11:06:43.237Z,1037.24
2018-02-08T11:07:43.222Z,1037.25
2018-02-08T11:08:43.207Z,1037.25
2018-02-08T11:09:43.191Z,1037.2
2018-02-08T11:10:43.176Z,1037.2
2018-02-08T11:11:43.162Z,1037.17
2018-02-08T11:12:43.146Z,1037.13
2018-02-08T11:13:43.135Z,1037.1
2018-02-08T11:14:43.130Z,1037.02
2018-02-08T11:16:43.085Z,1036.95
2018-02-08T11:17:43.072Z,1036.91
2018-02-08T11:18:43.058Z,1036.87
2018-02-08T11:19:43.069Z,1036.85
2018-02-08T11:20:43.026Z,1036.81
2018-02-08T11:21:43.011Z,1036.79
2018-02-08T11:22:42.998Z,1036.77
2018-02-08T11:23:42.980Z,1036.74
2018-02-08T11:24:42.967Z,1036.74
2018-02-08T11:25:42.950Z,1036.73
2018-02-08T11:26:42.937Z,1036.7
2018-02-08T11:27:42.921Z,1036.75
2018-02-08T11:28:42.908Z,1036.76
2018-02-08T11:29:42.892Z,1036.75
2018-02-08T11:30:42.877Z,1036.76
2018-02-08T11:31:42.863Z,1036.75
2018-02-08T11:32:42.849Z,1036.78
2018-02-08T11:33:42.834Z,1036.79
2018-02-08T11:34:42.819Z,1036.8
2018-02-08T11:35:42.804Z,1036.8
2018-02-08T11:36:42.792Z,1036.78
2018-02-08T11:37:42.775Z,1036.8
2018-02-08T11:38:42.760Z,1036.79
2018-02-08T11:39:42.747Z,1036.76
2018-02-08T11:40:42.732Z,1036.77
2018-02-08T11:41:42.716Z,1036.72
2018-02-08T11:42:42.727Z,1036.71
2018-02-08T11:43:42.687Z,1036.68
2018-02-08T11:44:42.674Z,1036.64
2018-02-08T11:45:42.658Z,1036.59
2018-02-08T11:46:42.643Z,1036.56
2018-02-08T11:47:42.628Z,1036.52
2018-02-08T11:48:42.613Z,1036.49
2018-02-08T11:49:42.599Z,1036.48
2018-02-08T11:50:42.586Z,1036.43
2018-02-08T11:51:42.570Z,1036.46
2018-02-08T11:52:42.557Z,1036.51
2018-02-08T11:53:42.546Z,1036.56
2018-02-08T11:54:42.528Z,1036.66
2018-02-08T11:55:42.512Z,1036.71
2018-02-08T11:56:42.498Z,1036.7
2018-02-08T11:57:42.486Z,1036.75
2018-02-08T11:58:42.470Z,1036.72
2018-02-08T11:59:42.463Z,1036.74
2018-02-08T12:00:42.445Z,1036.77
2018-02-08T12:01:42.427Z,1036.71
2018-02-08T12:02:42.411Z,1036.73
2018-02-08T12:03:42.397Z,1036.65
2018-02-08T12:04:42.383Z,1036.67
2018-02-08T12:05:42.368Z,1036.65
2018-02-08T12:06:42.353Z,1036.63
2018-02-08T12:07:42.344Z,1036.56
2018-02-08T12:08:42.326Z,1036.54
2018-02-08T12:09:42.309Z,1036.56
2018-02-08T12:10:42.296Z,1036.55